sensor_id;sensor_type;location;lat;lon;timestamp;P1;durP1;ratioP1;P2;durP2;ratioP2
21905;SDS011;11117;48.644;9.006;2022-12-07T00:01:38;22.43;;;11.43;;
21905;SDS011;11117;48.644;9.006;2022-12-07T00:04:05;23.33;;;10.10;;
21905;SDS011;11117;48.644;9.006;2022-12-07T00:06:36;21.53;;;9.80;;
21905;SDS011;11117;48.644;9.006;2022-12-07T00:09:04;18.20;;;9.50;;
21905;SDS011;11117;48.644;9.006;2022-12-07T00:11:32;20.80;;;10.07;;
21905;SDS011;11117;48.644;9.006;2022-12-07T00:13:58;18.33;;;9.27;;
21905;SDS011;11117;48.644;9.006;2022-12-07T00:16:30;20.20;;;9.97;;
21905;SDS011;11117;48.644;9.006;2022-12-07T00:18:57;23.33;;;9.80;;
21905;SDS011;11117;48.644;9.006;2022-12-07T00:21:24;20.27;;;10.47;;
21905;SDS011;11117;48.644;9.006;2022-12-07T00:23:52;25.33;;;11.93;;
21905;SDS011;11117;48.644;9.006;2022-12-07T00:26:22;24.70;;;11.57;;
21905;SDS011;11117;48.644;9.006;2022-12-07T00:28:50;24.20;;;10.83;;
21905;SDS011;11117;48.644;9.006;2022-12-07T00:31:19;20.50;;;10.50;;
21905;SDS011;11117;48.644;9.006;2022-12-07T00:33:46;19.40;;;10.17;;
21905;SDS011;11117;48.644;9.006;2022-12-07T00:36:13;21.37;;;9.93;;
21905;SDS011;11117;48.644;9.006;2022-12-07T00:38:43;19.83;;;9.13;;
21905;SDS011;11117;48.644;9.006;2022-12-07T00:41:10;17.73;;;9.00;;
21905;SDS011;11117;48.644;9.006;2022-12-07T00:43:37;14.17;;;8.47;;
21905;SDS011;11117;48.644;9.006;2022-12-07T00:46:04;15.07;;;8.37;;
21905;SDS011;11117;48.644;9.006;2022-12-07T00:48:30;17.43;;;8.73;;
21905;SDS011;11117;48.644;9.006;2022-12-07T00:50:56;17.47;;;8.87;;
21905;SDS011;11117;48.644;9.006;2022-12-07T00:53:22;18.50;;;9.87;;
21905;SDS011;11117;48.644;9.006;2022-12-07T00:55:47;18.57;;;9.67;;
21905;SDS011;11117;48.644;9.006;2022-12-07T00:58:13;19.23;;;9.90;;
21905;SDS011;11117;48.644;9.006;2022-12-07T01:00:39;18.07;;;9.40;;
21905;SDS011;11117;48.644;9.006;2022-12-07T01:03:06;15.53;;;8.67;;
21905;SDS011;11117;48.644;9.006;2022-12-07T01:05:33;14.87;;;8.13;;
21905;SDS011;11117;48.644;9.006;2022-12-07T01:07:59;17.07;;;7.93;;
21905;SDS011;11117;48.644;9.006;2022-12-07T01:10:25;17.30;;;8.43;;
21905;SDS011;11117;48.644;9.006;2022-12-07T01:12:51;13.70;;;8.23;;
21905;SDS011;11117;48.644;9.006;2022-12-07T01:15:17;22.73;;;10.70;;
21905;SDS011;11117;48.644;9.006;2022-12-07T01:17:43;22.73;;;10.63;;
21905;SDS011;11117;48.644;9.006;2022-12-07T01:20:09;30.37;;;14.03;;
21905;SDS011;11117;48.644;9.006;2022-12-07T01:22:38;37.73;;;14.83;;
21905;SDS011;11117;48.644;9.006;2022-12-07T01:25:06;28.60;;;13.87;;
21905;SDS011;11117;48.644;9.006;2022-12-07T01:27:33;38.03;;;14.90;;
21905;SDS011;11117;48.644;9.006;2022-12-07T01:29:59;33.00;;;14.73;;
21905;SDS011;11117;48.644;9.006;2022-12-07T01:32:26;30.37;;;12.47;;
21905;SDS011;11117;48.644;9.006;2022-12-07T01:34:52;46.57;;;17.10;;
21905;SDS011;11117;48.644;9.006;2022-12-07T01:37:18;39.87;;;15.93;;
21905;SDS011;11117;48.644;9.006;2022-12-07T01:39:43;42.60;;;16.53;;
21905;SDS011;11117;48.644;9.006;2022-12-07T01:42:09;67.03;;;20.07;;
21905;SDS011;11117;48.644;9.006;2022-12-07T01:47:39;36.47;;;15.47;;
21905;SDS011;11117;48.644;9.006;2022-12-07T01:50:06;22.50;;;12.33;;
21905;SDS011;11117;48.644;9.006;2022-12-07T01:52:32;26.47;;;14.20;;
21905;SDS011;11117;48.644;9.006;2022-12-07T01:55:02;23.70;;;12.17;;
21905;SDS011;11117;48.644;9.006;2022-12-07T01:57:31;23.40;;;11.30;;
21905;SDS011;11117;48.644;9.006;2022-12-07T01:59:59;20.80;;;12.30;;
21905;SDS011;11117;48.644;9.006;2022-12-07T02:02:35;19.80;;;11.43;;
21905;SDS011;11117;48.644;9.006;2022-12-07T02:05:04;21.07;;;11.90;;
21905;SDS011;11117;48.644;9.006;2022-12-07T02:07:31;18.90;;;11.03;;
21905;SDS011;11117;48.644;9.006;2022-12-07T02:10:17;17.60;;;9.17;;
21905;SDS011;11117;48.644;9.006;2022-12-07T02:12:44;20.97;;;11.00;;
21905;SDS011;11117;48.644;9.006;2022-12-07T02:15:13;22.90;;;12.70;;
21905;SDS011;11117;48.644;9.006;2022-12-07T02:17:47;21.47;;;10.17;;
21905;SDS011;11117;48.644;9.006;2022-12-07T02:26:16;22.67;;;11.90;;
21905;SDS011;11117;48.644;9.006;2022-12-07T02:28:36;26.70;;;13.07;;
21905;SDS011;11117;48.644;9.006;2022-12-07T02:31:15;24.47;;;13.13;;
21905;SDS011;11117;48.644;9.006;2022-12-07T02:34:04;25.77;;;14.07;;
21905;SDS011;11117;48.644;9.006;2022-12-07T02:36:36;22.77;;;12.80;;
21905;SDS011;11117;48.644;9.006;2022-12-07T02:39:09;23.93;;;12.70;;
21905;SDS011;11117;48.644;9.006;2022-12-07T02:41:38;25.03;;;13.33;;
21905;SDS011;11117;48.644;9.006;2022-12-07T02:44:10;26.53;;;13.60;;
21905;SDS011;11117;48.644;9.006;2022-12-07T02:46:40;24.20;;;13.33;;
21905;SDS011;11117;48.644;9.006;2022-12-07T02:49:09;22.70;;;13.33;;
21905;SDS011;11117;48.644;9.006;2022-12-07T02:51:38;22.60;;;12.37;;
21905;SDS011;11117;48.644;9.006;2022-12-07T02:54:10;26.40;;;13.10;;
21905;SDS011;11117;48.644;9.006;2022-12-07T03:04:52;20.57;;;11.63;;
21905;SDS011;11117;48.644;9.006;2022-12-07T03:08:46;23.13;;;12.50;;
21905;SDS011;11117;48.644;9.006;2022-12-07T03:11:08;19.83;;;10.80;;
21905;SDS011;11117;48.644;9.006;2022-12-07T03:13:41;17.90;;;11.13;;
21905;SDS011;11117;48.644;9.006;2022-12-07T03:16:26;21.03;;;12.00;;
21905;SDS011;11117;48.644;9.006;2022-12-07T03:19:00;25.10;;;12.97;;
21905;SDS011;11117;48.644;9.006;2022-12-07T03:21:40;21.37;;;11.80;;
21905;SDS011;11117;48.644;9.006;2022-12-07T03:24:24;23.50;;;11.97;;
21905;SDS011;11117;48.644;9.006;2022-12-07T03:26:56;20.53;;;12.33;;
21905;SDS011;11117;48.644;9.006;2022-12-07T03:29:41;22.10;;;12.27;;
21905;SDS011;11117;48.644;9.006;2022-12-07T03:32:19;20.93;;;12.67;;
21905;SDS011;11117;48.644;9.006;2022-12-07T03:35:00;21.70;;;12.30;;
21905;SDS011;11117;48.644;9.006;2022-12-07T03:42:54;24.47;;;12.90;;
21905;SDS011;11117;48.644;9.006;2022-12-07T03:45:23;23.47;;;12.17;;
21905;SDS011;11117;48.644;9.006;2022-12-07T03:48:02;23.90;;;13.33;;
21905;SDS011;11117;48.644;9.006;2022-12-07T03:51:04;23.93;;;13.53;;
21905;SDS011;11117;48.644;9.006;2022-12-07T03:53:48;22.43;;;12.70;;
21905;SDS011;11117;48.644;9.006;2022-12-07T03:56:20;23.63;;;12.63;;
21905;SDS011;11117;48.644;9.006;2022-12-07T03:58:47;23.63;;;12.90;;
21905;SDS011;11117;48.644;9.006;2022-12-07T04:01:14;23.27;;;12.20;;
21905;SDS011;11117;48.644;9.006;2022-12-07T04:03:42;21.37;;;12.03;;
21905;SDS011;11117;48.644;9.006;2022-12-07T04:06:07;20.80;;;11.73;;
21905;SDS011;11117;48.644;9.006;2022-12-07T04:08:33;23.13;;;11.93;;
21905;SDS011;11117;48.644;9.006;2022-12-07T04:10:59;23.80;;;12.27;;
21905;SDS011;11117;48.644;9.006;2022-12-07T04:13:24;21.23;;;11.67;;
21905;SDS011;11117;48.644;9.006;2022-12-07T04:15:53;20.57;;;11.50;;
21905;SDS011;11117;48.644;9.006;2022-12-07T04:18:18;21.47;;;11.40;;
21905;SDS011;11117;48.644;9.006;2022-12-07T04:20:45;24.57;;;11.97;;
21905;SDS011;11117;48.644;9.006;2022-12-07T04:23:11;21.80;;;11.43;;
21905;SDS011;11117;48.644;9.006;2022-12-07T04:25:36;20.53;;;12.03;;
21905;SDS011;11117;48.644;9.006;2022-12-07T04:28:02;21.73;;;12.17;;
21905;SDS011;11117;48.644;9.006;2022-12-07T04:30:28;22.13;;;11.77;;
21905;SDS011;11117;48.644;9.006;2022-12-07T04:32:53;21.97;;;11.13;;
21905;SDS011;11117;48.644;9.006;2022-12-07T04:35:19;19.23;;;10.47;;
21905;SDS011;11117;48.644;9.006;2022-12-07T04:37:46;23.43;;;11.43;;
21905;SDS011;11117;48.644;9.006;2022-12-07T04:40:12;21.60;;;11.37;;
21905;SDS011;11117;48.644;9.006;2022-12-07T04:42:38;21.07;;;12.20;;
21905;SDS011;11117;48.644;9.006;2022-12-07T04:45:04;19.07;;;11.70;;
21905;SDS011;11117;48.644;9.006;2022-12-07T04:47:30;19.10;;;10.57;;
21905;SDS011;11117;48.644;9.006;2022-12-07T04:49:56;20.50;;;10.53;;
21905;SDS011;11117;48.644;9.006;2022-12-07T04:52:22;20.73;;;11.07;;
21905;SDS011;11117;48.644;9.006;2022-12-07T04:54:47;19.00;;;10.70;;
21905;SDS011;11117;48.644;9.006;2022-12-07T04:57:13;20.00;;;10.93;;
21905;SDS011;11117;48.644;9.006;2022-12-07T04:59:39;21.43;;;11.07;;
21905;SDS011;11117;48.644;9.006;2022-12-07T05:02:04;19.30;;;10.40;;
21905;SDS011;11117;48.644;9.006;2022-12-07T05:04:30;18.60;;;9.93;;
21905;SDS011;11117;48.644;9.006;2022-12-07T05:06:57;18.60;;;10.17;;
21905;SDS011;11117;48.644;9.006;2022-12-07T05:09:23;18.53;;;10.03;;
21905;SDS011;11117;48.644;9.006;2022-12-07T05:11:48;20.17;;;10.00;;
21905;SDS011;11117;48.644;9.006;2022-12-07T05:14:18;19.03;;;9.90;;
21905;SDS011;11117;48.644;9.006;2022-12-07T05:16:46;17.33;;;9.60;;
21905;SDS011;11117;48.644;9.006;2022-12-07T05:19:13;19.10;;;10.20;;
21905;SDS011;11117;48.644;9.006;2022-12-07T05:21:39;19.77;;;10.53;;
21905;SDS011;11117;48.644;9.006;2022-12-07T05:24:05;18.03;;;10.13;;
21905;SDS011;11117;48.644;9.006;2022-12-07T05:26:32;18.53;;;10.43;;
21905;SDS011;11117;48.644;9.006;2022-12-07T05:28:57;19.70;;;10.00;;
21905;SDS011;11117;48.644;9.006;2022-12-07T05:31:24;18.77;;;9.77;;
21905;SDS011;11117;48.644;9.006;2022-12-07T05:33:52;19.00;;;10.57;;
21905;SDS011;11117;48.644;9.006;2022-12-07T05:36:18;18.77;;;10.30;;
21905;SDS011;11117;48.644;9.006;2022-12-07T05:38:44;23.10;;;11.50;;
21905;SDS011;11117;48.644;9.006;2022-12-07T05:41:09;19.63;;;10.67;;
21905;SDS011;11117;48.644;9.006;2022-12-07T05:43:39;19.10;;;10.47;;
21905;SDS011;11117;48.644;9.006;2022-12-07T05:46:04;20.00;;;11.00;;
21905;SDS011;11117;48.644;9.006;2022-12-07T05:48:30;21.27;;;11.23;;
21905;SDS011;11117;48.644;9.006;2022-12-07T05:50:55;19.40;;;10.77;;
21905;SDS011;11117;48.644;9.006;2022-12-07T05:53:21;21.03;;;11.30;;
21905;SDS011;11117;48.644;9.006;2022-12-07T05:55:46;20.87;;;10.63;;
21905;SDS011;11117;48.644;9.006;2022-12-07T05:58:12;21.37;;;11.57;;
21905;SDS011;11117;48.644;9.006;2022-12-07T06:00:38;23.73;;;12.47;;
21905;SDS011;11117;48.644;9.006;2022-12-07T06:03:03;22.27;;;11.60;;
21905;SDS011;11117;48.644;9.006;2022-12-07T06:05:29;29.87;;;12.33;;
21905;SDS011;11117;48.644;9.006;2022-12-07T06:07:54;25.20;;;11.83;;
21905;SDS011;11117;48.644;9.006;2022-12-07T06:10:20;27.47;;;11.53;;
21905;SDS011;11117;48.644;9.006;2022-12-07T06:12:45;23.90;;;11.33;;
21905;SDS011;11117;48.644;9.006;2022-12-07T06:15:11;25.60;;;11.53;;
21905;SDS011;11117;48.644;9.006;2022-12-07T06:17:36;22.33;;;11.00;;
21905;SDS011;11117;48.644;9.006;2022-12-07T06:20:02;28.30;;;12.17;;
21905;SDS011;11117;48.644;9.006;2022-12-07T06:22:28;25.50;;;11.33;;
21905;SDS011;11117;48.644;9.006;2022-12-07T06:24:54;20.53;;;10.20;;
21905;SDS011;11117;48.644;9.006;2022-12-07T06:27:19;21.93;;;11.23;;
21905;SDS011;11117;48.644;9.006;2022-12-07T06:29:45;36.10;;;16.97;;
21905;SDS011;11117;48.644;9.006;2022-12-07T06:32:11;32.70;;;15.83;;
21905;SDS011;11117;48.644;9.006;2022-12-07T06:34:36;28.60;;;12.87;;
21905;SDS011;11117;48.644;9.006;2022-12-07T06:37:02;27.60;;;13.50;;
21905;SDS011;11117;48.644;9.006;2022-12-07T06:39:28;24.70;;;13.13;;
21905;SDS011;11117;48.644;9.006;2022-12-07T06:41:54;25.00;;;12.30;;
21905;SDS011;11117;48.644;9.006;2022-12-07T06:44:20;25.27;;;12.87;;
21905;SDS011;11117;48.644;9.006;2022-12-07T06:46:46;30.60;;;14.33;;
21905;SDS011;11117;48.644;9.006;2022-12-07T06:49:12;29.77;;;13.07;;
21905;SDS011;11117;48.644;9.006;2022-12-07T06:51:38;24.77;;;13.00;;
21905;SDS011;11117;48.644;9.006;2022-12-07T06:54:04;27.00;;;14.57;;
21905;SDS011;11117;48.644;9.006;2022-12-07T06:56:29;229.87;;;19.67;;
21905;SDS011;11117;48.644;9.006;2022-12-07T06:58:55;498.17;;;27.23;;
21905;SDS011;11117;48.644;9.006;2022-12-07T07:01:20;24.20;;;11.37;;
21905;SDS011;11117;48.644;9.006;2022-12-07T07:03:46;547.73;;;24.77;;
21905;SDS011;11117;48.644;9.006;2022-12-07T07:06:12;31.40;;;12.50;;
21905;SDS011;11117;48.644;9.006;2022-12-07T07:08:39;103.77;;;14.80;;
21905;SDS011;11117;48.644;9.006;2022-12-07T07:11:05;24.53;;;11.90;;
21905;SDS011;11117;48.644;9.006;2022-12-07T07:13:32;23.63;;;11.40;;
21905;SDS011;11117;48.644;9.006;2022-12-07T07:15:57;26.43;;;11.90;;
21905;SDS011;11117;48.644;9.006;2022-12-07T07:18:23;22.40;;;11.73;;
21905;SDS011;11117;48.644;9.006;2022-12-07T07:20:52;28.60;;;13.10;;
21905;SDS011;11117;48.644;9.006;2022-12-07T07:23:18;28.47;;;13.47;;
21905;SDS011;11117;48.644;9.006;2022-12-07T07:25:45;24.07;;;12.20;;
21905;SDS011;11117;48.644;9.006;2022-12-07T07:28:11;24.77;;;12.23;;
21905;SDS011;11117;48.644;9.006;2022-12-07T07:30:37;29.83;;;14.30;;
21905;SDS011;11117;48.644;9.006;2022-12-07T07:33:03;30.23;;;13.93;;
21905;SDS011;11117;48.644;9.006;2022-12-07T07:35:30;32.53;;;14.80;;
21905;SDS011;11117;48.644;9.006;2022-12-07T07:37:57;25.37;;;12.93;;
21905;SDS011;11117;48.644;9.006;2022-12-07T07:40:22;22.83;;;11.77;;
21905;SDS011;11117;48.644;9.006;2022-12-07T07:42:49;20.87;;;11.13;;
21905;SDS011;11117;48.644;9.006;2022-12-07T07:45:15;22.27;;;11.20;;
21905;SDS011;11117;48.644;9.006;2022-12-07T07:47:41;19.60;;;10.60;;
21905;SDS011;11117;48.644;9.006;2022-12-07T07:50:07;19.70;;;9.00;;
21905;SDS011;11117;48.644;9.006;2022-12-07T07:52:33;15.83;;;9.20;;
21905;SDS011;11117;48.644;9.006;2022-12-07T07:54:59;14.07;;;8.30;;
21905;SDS011;11117;48.644;9.006;2022-12-07T07:57:24;13.97;;;8.20;;
21905;SDS011;11117;48.644;9.006;2022-12-07T07:59:50;14.00;;;7.87;;
21905;SDS011;11117;48.644;9.006;2022-12-07T08:02:16;12.20;;;7.20;;
21905;SDS011;11117;48.644;9.006;2022-12-07T08:04:43;15.47;;;7.50;;
21905;SDS011;11117;48.644;9.006;2022-12-07T08:07:10;12.03;;;7.40;;
21905;SDS011;11117;48.644;9.006;2022-12-07T08:09:36;13.57;;;8.00;;
21905;SDS011;11117;48.644;9.006;2022-12-07T08:12:01;16.20;;;8.83;;
21905;SDS011;11117;48.644;9.006;2022-12-07T08:14:27;16.53;;;9.70;;
21905;SDS011;11117;48.644;9.006;2022-12-07T08:16:53;13.67;;;8.63;;
21905;SDS011;11117;48.644;9.006;2022-12-07T08:19:18;12.30;;;7.07;;
21905;SDS011;11117;48.644;9.006;2022-12-07T08:21:44;14.80;;;8.43;;
21905;SDS011;11117;48.644;9.006;2022-12-07T08:24:09;13.97;;;7.33;;
21905;SDS011;11117;48.644;9.006;2022-12-07T08:26:35;16.10;;;8.00;;
21905;SDS011;11117;48.644;9.006;2022-12-07T08:29:00;12.93;;;7.80;;
21905;SDS011;11117;48.644;9.006;2022-12-07T08:31:26;13.80;;;7.93;;
21905;SDS011;11117;48.644;9.006;2022-12-07T08:33:52;15.00;;;8.10;;
21905;SDS011;11117;48.644;9.006;2022-12-07T08:36:18;13.00;;;7.50;;
21905;SDS011;11117;48.644;9.006;2022-12-07T08:38:44;13.77;;;7.87;;
21905;SDS011;11117;48.644;9.006;2022-12-07T08:41:09;14.50;;;8.47;;
21905;SDS011;11117;48.644;9.006;2022-12-07T08:43:35;14.80;;;8.43;;
21905;SDS011;11117;48.644;9.006;2022-12-07T08:48:50;16.60;;;7.80;;
21905;SDS011;11117;48.644;9.006;2022-12-07T08:51:20;12.03;;;7.30;;
21905;SDS011;11117;48.644;9.006;2022-12-07T08:53:47;13.33;;;7.93;;
21905;SDS011;11117;48.644;9.006;2022-12-07T08:56:14;16.03;;;8.17;;
21905;SDS011;11117;48.644;9.006;2022-12-07T08:58:40;13.40;;;8.40;;
21905;SDS011;11117;48.644;9.006;2022-12-07T09:01:06;13.43;;;8.27;;
21905;SDS011;11117;48.644;9.006;2022-12-07T09:03:31;12.80;;;7.93;;
21905;SDS011;11117;48.644;9.006;2022-12-07T09:06:00;14.03;;;8.70;;
21905;SDS011;11117;48.644;9.006;2022-12-07T09:08:26;15.57;;;8.97;;
21905;SDS011;11117;48.644;9.006;2022-12-07T09:11:04;13.27;;;7.57;;
21905;SDS011;11117;48.644;9.006;2022-12-07T09:13:30;12.07;;;7.67;;
21905;SDS011;11117;48.644;9.006;2022-12-07T09:15:55;11.33;;;7.33;;
21905;SDS011;11117;48.644;9.006;2022-12-07T09:18:21;13.33;;;7.90;;
21905;SDS011;11117;48.644;9.006;2022-12-07T09:20:46;20.27;;;11.47;;
21905;SDS011;11117;48.644;9.006;2022-12-07T09:23:12;13.97;;;7.83;;
21905;SDS011;11117;48.644;9.006;2022-12-07T09:25:37;13.50;;;8.47;;
21905;SDS011;11117;48.644;9.006;2022-12-07T09:28:03;16.03;;;8.57;;
21905;SDS011;11117;48.644;9.006;2022-12-07T09:30:29;11.57;;;7.07;;
21905;SDS011;11117;48.644;9.006;2022-12-07T09:32:55;12.63;;;7.23;;
21905;SDS011;11117;48.644;9.006;2022-12-07T09:35:22;11.57;;;6.97;;
21905;SDS011;11117;48.644;9.006;2022-12-07T09:37:48;11.10;;;6.70;;
21905;SDS011;11117;48.644;9.006;2022-12-07T09:40:14;11.27;;;6.63;;
21905;SDS011;11117;48.644;9.006;2022-12-07T09:42:42;12.77;;;6.70;;
21905;SDS011;11117;48.644;9.006;2022-12-07T09:45:15;9.40;;;6.40;;
21905;SDS011;11117;48.644;9.006;2022-12-07T09:47:44;13.40;;;6.33;;
21905;SDS011;11117;48.644;9.006;2022-12-07T09:50:15;11.90;;;6.97;;
21905;SDS011;11117;48.644;9.006;2022-12-07T09:52:44;10.60;;;6.90;;
21905;SDS011;11117;48.644;9.006;2022-12-07T09:55:12;12.43;;;6.67;;
21905;SDS011;11117;48.644;9.006;2022-12-07T09:57:47;9.10;;;6.20;;
21905;SDS011;11117;48.644;9.006;2022-12-07T10:00:14;11.80;;;7.50;;
21905;SDS011;11117;48.644;9.006;2022-12-07T10:02:43;13.53;;;7.33;;
21905;SDS011;11117;48.644;9.006;2022-12-07T10:05:22;15.67;;;8.53;;
21905;SDS011;11117;48.644;9.006;2022-12-07T10:08:00;12.07;;;7.40;;
21905;SDS011;11117;48.644;9.006;2022-12-07T10:10:30;13.27;;;7.27;;
21905;SDS011;11117;48.644;9.006;2022-12-07T10:21:16;9.63;;;6.30;;
21905;SDS011;11117;48.644;9.006;2022-12-07T10:24:26;10.60;;;6.30;;
21905;SDS011;11117;48.644;9.006;2022-12-07T10:26:32;10.07;;;6.33;;
21905;SDS011;11117;48.644;9.006;2022-12-07T10:29:00;10.10;;;6.10;;
21905;SDS011;11117;48.644;9.006;2022-12-07T10:31:38;9.33;;;5.80;;
21905;SDS011;11117;48.644;9.006;2022-12-07T10:34:24;11.53;;;6.70;;
21905;SDS011;11117;48.644;9.006;2022-12-07T10:37:06;11.13;;;6.63;;
21905;SDS011;11117;48.644;9.006;2022-12-07T10:39:48;11.40;;;6.53;;
21905;SDS011;11117;48.644;9.006;2022-12-07T10:44:45;11.80;;;7.03;;
21905;SDS011;11117;48.644;9.006;2022-12-07T11:02:47;11.77;;;6.97;;
21905;SDS011;11117;48.644;9.006;2022-12-07T11:08:21;8.80;;;5.90;;
21905;SDS011;11117;48.644;9.006;2022-12-07T11:11:14;11.70;;;6.60;;
21905;SDS011;11117;48.644;9.006;2022-12-07T11:13:52;11.23;;;6.50;;
21905;SDS011;11117;48.644;9.006;2022-12-07T11:25:23;10.20;;;6.70;;
21905;SDS011;11117;48.644;9.006;2022-12-07T11:31:22;12.80;;;5.57;;
21905;SDS011;11117;48.644;9.006;2022-12-07T11:36:40;10.07;;;5.20;;
21905;SDS011;11117;48.644;9.006;2022-12-07T11:39:19;10.10;;;5.53;;
21905;SDS011;11117;48.644;9.006;2022-12-07T11:41:48;9.67;;;5.80;;
21905;SDS011;11117;48.644;9.006;2022-12-07T11:44:38;8.03;;;5.30;;
21905;SDS011;11117;48.644;9.006;2022-12-07T11:47:21;7.70;;;4.90;;
21905;SDS011;11117;48.644;9.006;2022-12-07T11:53:03;11.47;;;5.97;;
21905;SDS011;11117;48.644;9.006;2022-12-07T11:58:33;9.60;;;6.30;;
21905;SDS011;11117;48.644;9.006;2022-12-07T12:06:28;9.17;;;5.30;;
21905;SDS011;11117;48.644;9.006;2022-12-07T12:08:55;8.80;;;5.53;;
21905;SDS011;11117;48.644;9.006;2022-12-07T12:23:00;9.63;;;5.50;;
21905;SDS011;11117;48.644;9.006;2022-12-07T12:25:48;8.40;;;5.20;;
21905;SDS011;11117;48.644;9.006;2022-12-07T12:28:27;8.40;;;5.00;;
21905;SDS011;11117;48.644;9.006;2022-12-07T12:31:46;10.20;;;5.40;;
21905;SDS011;11117;48.644;9.006;2022-12-07T12:33:53;9.57;;;5.30;;
21905;SDS011;11117;48.644;9.006;2022-12-07T12:44:01;13.67;;;5.57;;
21905;SDS011;11117;48.644;9.006;2022-12-07T12:51:53;12.50;;;6.40;;
21905;SDS011;11117;48.644;9.006;2022-12-07T12:59:31;11.10;;;6.10;;
21905;SDS011;11117;48.644;9.006;2022-12-07T13:02:20;16.33;;;7.30;;
21905;SDS011;11117;48.644;9.006;2022-12-07T13:04:59;12.00;;;7.60;;
21905;SDS011;11117;48.644;9.006;2022-12-07T13:15:42;10.93;;;4.40;;
21905;SDS011;11117;48.644;9.006;2022-12-07T13:24:17;7.90;;;3.90;;
21905;SDS011;11117;48.644;9.006;2022-12-07T13:29:12;6.93;;;4.27;;
21905;SDS011;11117;48.644;9.006;2022-12-07T13:31:47;8.73;;;4.40;;
21905;SDS011;11117;48.644;9.006;2022-12-07T13:34:32;6.40;;;3.30;;
21905;SDS011;11117;48.644;9.006;2022-12-07T13:36:59;6.03;;;3.90;;
21905;SDS011;11117;48.644;9.006;2022-12-07T13:39:54;6.17;;;3.47;;
21905;SDS011;11117;48.644;9.006;2022-12-07T13:42:40;8.97;;;4.63;;
21905;SDS011;11117;48.644;9.006;2022-12-07T13:47:52;8.67;;;4.07;;
21905;SDS011;11117;48.644;9.006;2022-12-07T13:50:30;7.00;;;4.60;;
21905;SDS011;11117;48.644;9.006;2022-12-07T13:53:00;8.20;;;4.37;;
21905;SDS011;11117;48.644;9.006;2022-12-07T13:55:29;9.60;;;4.87;;
21905;SDS011;11117;48.644;9.006;2022-12-07T13:57:55;6.77;;;4.77;;
21905;SDS011;11117;48.644;9.006;2022-12-07T14:00:22;8.83;;;5.13;;
21905;SDS011;11117;48.644;9.006;2022-12-07T14:02:57;8.33;;;4.73;;
21905;SDS011;11117;48.644;9.006;2022-12-07T14:05:24;7.43;;;4.67;;
21905;SDS011;11117;48.644;9.006;2022-12-07T14:08:04;7.00;;;4.77;;
21905;SDS011;11117;48.644;9.006;2022-12-07T14:10:40;11.23;;;5.20;;
21905;SDS011;11117;48.644;9.006;2022-12-07T14:15:59;9.63;;;5.50;;
21905;SDS011;11117;48.644;9.006;2022-12-07T14:18:28;7.37;;;4.37;;
21905;SDS011;11117;48.644;9.006;2022-12-07T14:23:30;9.03;;;4.93;;
21905;SDS011;11117;48.644;9.006;2022-12-07T14:26:04;5.90;;;4.20;;
21905;SDS011;11117;48.644;9.006;2022-12-07T14:28:39;9.87;;;5.23;;
21905;SDS011;11117;48.644;9.006;2022-12-07T14:31:23;9.00;;;5.10;;
21905;SDS011;11117;48.644;9.006;2022-12-07T14:33:49;8.80;;;4.50;;
21905;SDS011;11117;48.644;9.006;2022-12-07T14:36:15;7.93;;;4.70;;
21905;SDS011;11117;48.644;9.006;2022-12-07T14:38:41;21.43;;;9.77;;
21905;SDS011;11117;48.644;9.006;2022-12-07T14:41:10;11.70;;;6.60;;
21905;SDS011;11117;48.644;9.006;2022-12-07T14:43:39;13.03;;;6.30;;
21905;SDS011;11117;48.644;9.006;2022-12-07T14:46:05;8.83;;;5.27;;
21905;SDS011;11117;48.644;9.006;2022-12-07T14:48:31;12.67;;;5.77;;
21905;SDS011;11117;48.644;9.006;2022-12-07T14:50:56;14.73;;;5.90;;
21905;SDS011;11117;48.644;9.006;2022-12-07T14:53:25;11.13;;;5.90;;
21905;SDS011;11117;48.644;9.006;2022-12-07T14:56:06;14.73;;;6.70;;
21905;SDS011;11117;48.644;9.006;2022-12-07T14:58:32;12.60;;;6.43;;
21905;SDS011;11117;48.644;9.006;2022-12-07T15:00:58;14.33;;;6.97;;
21905;SDS011;11117;48.644;9.006;2022-12-07T15:03:24;10.57;;;5.73;;
21905;SDS011;11117;48.644;9.006;2022-12-07T15:05:49;13.73;;;6.60;;
21905;SDS011;11117;48.644;9.006;2022-12-07T15:08:15;12.43;;;6.77;;
21905;SDS011;11117;48.644;9.006;2022-12-07T15:10:40;9.97;;;6.47;;
21905;SDS011;11117;48.644;9.006;2022-12-07T15:13:06;10.73;;;6.33;;
21905;SDS011;11117;48.644;9.006;2022-12-07T15:15:32;13.33;;;7.40;;
21905;SDS011;11117;48.644;9.006;2022-12-07T15:17:58;12.83;;;7.53;;
21905;SDS011;11117;48.644;9.006;2022-12-07T15:20:24;11.90;;;7.00;;
21905;SDS011;11117;48.644;9.006;2022-12-07T15:22:49;11.23;;;6.97;;
21905;SDS011;11117;48.644;9.006;2022-12-07T15:25:15;11.80;;;6.83;;
21905;SDS011;11117;48.644;9.006;2022-12-07T15:27:41;12.17;;;7.33;;
21905;SDS011;11117;48.644;9.006;2022-12-07T15:30:06;10.43;;;6.80;;
21905;SDS011;11117;48.644;9.006;2022-12-07T15:32:32;11.73;;;7.17;;
21905;SDS011;11117;48.644;9.006;2022-12-07T15:34:58;13.23;;;7.13;;
21905;SDS011;11117;48.644;9.006;2022-12-07T15:37:23;12.60;;;6.57;;
21905;SDS011;11117;48.644;9.006;2022-12-07T15:39:49;12.83;;;6.83;;
21905;SDS011;11117;48.644;9.006;2022-12-07T15:42:14;20.67;;;11.17;;
21905;SDS011;11117;48.644;9.006;2022-12-07T15:44:40;20.70;;;9.00;;
21905;SDS011;11117;48.644;9.006;2022-12-07T15:47:05;14.37;;;7.77;;
21905;SDS011;11117;48.644;9.006;2022-12-07T15:49:31;13.57;;;7.47;;
21905;SDS011;11117;48.644;9.006;2022-12-07T15:51:57;12.00;;;7.20;;
21905;SDS011;11117;48.644;9.006;2022-12-07T15:54:26;12.77;;;7.17;;
21905;SDS011;11117;48.644;9.006;2022-12-07T15:56:53;22.70;;;7.90;;
21905;SDS011;11117;48.644;9.006;2022-12-07T15:59:19;17.63;;;9.23;;
21905;SDS011;11117;48.644;9.006;2022-12-07T16:01:45;18.47;;;7.23;;
21905;SDS011;11117;48.644;9.006;2022-12-07T16:04:10;17.53;;;9.13;;
21905;SDS011;11117;48.644;9.006;2022-12-07T16:06:36;13.13;;;6.30;;
21905;SDS011;11117;48.644;9.006;2022-12-07T16:09:02;16.10;;;8.63;;
21905;SDS011;11117;48.644;9.006;2022-12-07T16:11:28;15.63;;;8.70;;
21905;SDS011;11117;48.644;9.006;2022-12-07T16:13:53;15.07;;;8.27;;
21905;SDS011;11117;48.644;9.006;2022-12-07T16:16:19;17.20;;;8.50;;
21905;SDS011;11117;48.644;9.006;2022-12-07T16:18:46;19.93;;;9.47;;
21905;SDS011;11117;48.644;9.006;2022-12-07T16:21:12;12.80;;;7.47;;
21905;SDS011;11117;48.644;9.006;2022-12-07T16:23:38;21.93;;;10.07;;
21905;SDS011;11117;48.644;9.006;2022-12-07T16:26:08;19.67;;;10.13;;
21905;SDS011;11117;48.644;9.006;2022-12-07T16:28:39;16.53;;;9.33;;
21905;SDS011;11117;48.644;9.006;2022-12-07T16:31:06;20.97;;;9.47;;
21905;SDS011;11117;48.644;9.006;2022-12-07T16:33:34;17.90;;;10.00;;
21905;SDS011;11117;48.644;9.006;2022-12-07T16:35:59;17.50;;;9.60;;
21905;SDS011;11117;48.644;9.006;2022-12-07T16:38:25;16.60;;;9.63;;
21905;SDS011;11117;48.644;9.006;2022-12-07T16:40:51;24.77;;;12.83;;
21905;SDS011;11117;48.644;9.006;2022-12-07T16:43:17;19.60;;;10.80;;
21905;SDS011;11117;48.644;9.006;2022-12-07T16:45:42;21.03;;;11.50;;
21905;SDS011;11117;48.644;9.006;2022-12-07T16:48:08;20.83;;;10.23;;
21905;SDS011;11117;48.644;9.006;2022-12-07T16:50:33;20.10;;;10.23;;
21905;SDS011;11117;48.644;9.006;2022-12-07T16:52:59;17.43;;;9.60;;
21905;SDS011;11117;48.644;9.006;2022-12-07T16:55:24;19.87;;;9.90;;
21905;SDS011;11117;48.644;9.006;2022-12-07T16:57:50;20.23;;;10.13;;